LICCLIPX

Guest
Details From LICC - Catania Fontanarossa
To LIPX - Villafranca
Flight Number -
Tags Generated
Created
Modified
Stats Distance 511 nm / 947 km
Max Altitude 0 ft / 0 m
Waypoints 4
Social Downloads 0
Likes 0
Share VATSIM

Download

Looking for another format? Having issues loading an existing format? Contact us
Advertisement - Login to hide

Notes

Generated

Route

LICC FRS20 VIC40 LIPX

ID Type Via Altitude Latitude Longitude Leg Dist Tot Dist Heading (true) Name
O LICC APT - 0 ft / 0 m 37.46563˚ 15.05269˚ - 0 nm - -
FRS20 FIX - 0 ft / 0 m 41.70862˚ 13.01956˚ 271 nm 271 nm 340° / 339° -
VIC40 FIX - 0 ft / 0 m 45.16903˚ 11.00676˚ 225 nm 497 nm 338° / 336° -
O LIPX APT - 0 ft / 0 m 45.38732˚ 10.87633˚ 14 nm 511 nm 337° / 337° -

Altitude Profile

Advertisement - Login to hide

Weather


0- 5 10 15 20 25 30 35+ Temperature / ° C

Clouds and Precipitation
Forecast for 2017-12-17 00:00 UTC. Updated 2 hours ago

Ground ~20,000 ft ~40,000 ft Winds

LICC

Details ICAO LICC (CTA)
Name Catania Fontanarossa
Region Italy
Timezone Europe/Rome (UTC+1.0)
Stats Elevation 39 ft / 12 m (AMSL)
Location 37.466779° 15.066401°
Runways 1
Magnetic Variation 3.216° E

METAR

LICC 162250Z 25006KT 9999 FEW100 10/08 Q1011

Decode

TAF

TAF LICC 161700Z 1618/1718 28010KT 9999 SCT030 BKN040 TEMPO 1618/1621 SHRA

Decode

Departure Runways

ID Width Length Bearing (true) Bearing (mag) Surface Threshold Offset Overrun Length
08 148 ft / 45 m 7,985 ft / 2,434 m 83.94° 80.72° Asphalt 312 ft / 95 m 0 ft / 0 m
26 148 ft / 45 m 7,985 ft / 2,434 m 263.95° 260.73° Asphalt 279 ft / 85 m 0 ft / 0 m

LIPX

Details ICAO LIPX (VRN)
Name VILLAFRANCA
Region Italy
Timezone Europe/Rome (UTC+1.0)
Stats Elevation 239 ft / 73 m (AMSL)
Location 45.396942° 10.890418°
Runways 1
Magnetic Variation 2.861° E

METAR

LIPX 162250Z 25005KT CAVOK 02/01 Q1014

Decode

TAF

Not found

Destination Runways

ID Width Length Bearing (true) Bearing (mag) Surface Threshold Offset Overrun Length
04 148 ft / 45 m 10,072 ft / 3,070 m 45.79° 42.93° Asphalt 189 ft / 58 m 815 ft / 248 m
22 148 ft / 45 m 10,072 ft / 3,070 m 225.81° 222.95° Asphalt 1,345 ft / 410 m 189 ft / 58 m

Approach Navaids

Runway Type Ident Frequency Range Bearing (true) Bearing (mag) Slope Elevation
04 Localiser IVF 110.10 MHz 18 nm / 33 km 45.76° 42.90° - 248 ft / 76 m (AMSL)
04 Glidescope IVF 110.10 MHz 10 nm / 19 km 45.80° 42.94° 3.00° 272 ft / 83 m (AMSL)
04 DME IVF 110.10 MHz 18 nm / 33 km - - - 248 ft / 76 m (AMSL)

Popular Alternatives